Time,TemperatureF,DewpointF,PressureIn,WindDirection,WindDirectionDegrees,WindSpeedMPH,WindSpeedGustMPH,Humidity,HourlyPrecipIn,Conditions,Clouds,dailyrainin,SoftwareType,DateUTC
2013-01-31 00:02:00,29.1,25.2,30.47,ESE,104,0.0,0.0,85,0.00,,,0.00,Wunderground v.1.15,2013-01-31 08:02:00,
2013-01-31 00:08:00,29.3,25.1,30.47,ESE,104,0.0,0.0,84,0.00,,,0.00,Wunderground v.1.15,2013-01-31 08:08:00,
2013-01-31 06:32:00,22.9,20.1,30.51,ESE,104,0.0,1.0,89,0.00,,,0.00,Wunderground v.1.15,2013-01-31 14:32:00,
2013-01-31 06:38:00,22.9,20.1,30.51,ESE,103,1.0,1.0,89,0.00,,,0.00,Wunderground v.1.15,2013-01-31 14:38:00,
2013-01-31 06:44:00,23.2,20.7,30.51,ESE,109,0.0,1.0,90,0.00,,,0.00,Wunderground v.1.15,2013-01-31 14:44:00,
2013-01-31 06:50:00,23.6,21.1,30.50,ESE,109,0.0,1.0,90,0.00,,,0.00,Wunderground v.1.15,2013-01-31 14:50:00,
2013-01-31 06:56:00,23.8,21.3,30.50,ESE,109,0.0,0.0,90,0.00,,,0.00,Wunderground v.1.15,2013-01-31 14:56:00,
2013-01-31 07:02:00,23.8,21.3,30.51,ESE,109,0.0,0.0,90,0.00,,,0.00,Wunderground v.1.15,2013-01-31 15:02:00,
2013-01-31 07:08:00,23.6,20.8,30.51,ESE,109,0.0,0.0,89,0.00,,,0.00,Wunderground v.1.15,2013-01-31 15:08:00,
2013-01-31 07:14:00,23.5,20.7,30.51,ESE,109,0.0,0.0,89,0.00,,,0.00,Wunderground v.1.15,2013-01-31 15:14:00,
2013-01-31 07:20:00,23.5,20.7,30.53,ESE,109,0.0,0.0,89,0.00,,,0.00,Wunderground v.1.15,2013-01-31 15:20:00,
2013-01-31 07:25:00,23.5,20.7,30.53,ESE,109,0.0,0.0,89,0.00,,,0.00,Wunderground v.1.15,2013-01-31 15:25:00,
2013-01-31 07:32:00,23.3,20.5,30.53,ESE,109,0.0,0.0,89,0.00,,,0.00,Wunderground v.1.15,2013-01-31 15:32:00,
2013-01-31 07:38:00,23.3,20.5,30.53,ESE,109,0.0,0.0,89,0.00,,,0.00,Wunderground v.1.15,2013-01-31 15:38:00,
2013-01-31 07:44:00,23.6,21.1,30.53,ESE,109,0.0,1.0,90,0.00,,,0.00,Wunderground v.1.15,2013-01-31 15:44:00,
2013-01-31 07:49:00,23.8,21.3,30.53,ESE,107,0.0,0.0,90,0.00,,,0.00,Wunderground v.1.15,2013-01-31 15:49:00,
2013-01-31 07:56:00,24.1,21.6,30.53,ESE,107,0.0,0.0,90,0.00,,,0.00,Wunderground v.1.15,2013-01-31 15:56:00,
2013-01-31 08:02:00,24.4,21.9,30.53,ESE,107,0.0,0.0,90,0.00,,,0.00,Wunderground v.1.15,2013-01-31 16:02:00,
2013-01-31 08:08:00,24.8,22.5,30.53,ESE,107,0.0,1.0,91,0.00,,,0.00,Wunderground v.1.15,2013-01-31 16:08:00,
2013-01-31 08:14:00,25.3,23.0,30.53,ESE,107,0.0,0.0,91,0.00,,,0.00,Wunderground v.1.15,2013-01-31 16:14:00,
2013-01-31 08:20:00,25.7,23.4,30.54,ESE,107,0.0,0.0,91,0.00,,,0.00,Wunderground v.1.15,2013-01-31 16:20:00,
2013-01-31 08:26:00,26.0,23.7,30.54,ESE,107,0.0,0.0,91,0.00,,,0.00,Wunderground v.1.15,2013-01-31 16:26:00,
2013-01-31 08:32:00,26.4,24.1,30.54,ESE,107,0.0,0.0,91,0.00,,,0.00,Wunderground v.1.15,2013-01-31 16:32:00,
2013-01-31 08:38:00,26.9,24.6,30.54,ESE,107,0.0,0.0,91,0.00,,,0.00,Wunderground v.1.15,2013-01-31 16:38:00,
2013-01-31 08:44:00,27.5,25.2,30.54,ESE,107,0.0,0.0,91,0.00,,,0.00,Wunderground v.1.15,2013-01-31 16:44:00,
2013-01-31 08:50:00,28.4,26.1,30.52,ESE,107,0.0,0.0,91,0.00,,,0.00,Wunderground v.1.15,2013-01-31 16:50:00,
2013-01-31 08:55:00,29.1,26.5,30.52,ESE,107,0.0,0.0,90,0.00,,,0.00,Wunderground v.1.15,2013-01-31 16:55:00,
2013-01-31 09:02:00,29.8,27.0,30.51,ESE,107,0.0,0.0,89,0.00,,,0.00,Wunderground v.1.15,2013-01-31 17:02:00,
2013-01-31 09:08:00,30.3,26.6,30.51,ESE,107,0.0,0.0,86,0.00,,,0.00,Wunderground v.1.15,2013-01-31 17:08:00,
2013-01-31 19:32:00,36.5,29.0,30.40,ESE,112,0.0,1.0,74,0.00,,,0.00,Wunderground v.1.15,2013-02-01 03:32:00,
2013-01-31 21:30:00,32.1,25.4,30.37,ESE,102,0.0,0.0,76,0.00,,,0.00,Wunderground v.1.15,2013-02-01 05:30:00,
2013-01-31 21:32:00,31.9,25.2,30.38,ESE,102,0.0,0.0,76,0.00,,,0.00,Wunderground v.1.15,2013-02-01 05:32:00,
2013-01-31 21:34:00,31.9,24.9,30.38,ESE,102,0.0,0.0,75,0.00,,,0.00,Wunderground v.1.15,2013-02-01 05:34:00,
2013-01-31 21:39:00,31.8,25.1,30.38,ESE,102,0.0,0.0,76,0.00,,,0.00,Wunderground v.1.15,2013-02-01 05:39:00,
2013-01-31 21:46:00,31.8,24.8,30.38,ESE,102,0.0,1.0,75,0.00,,,0.00,Wunderground v.1.15,2013-02-01 05:46:00,
2013-01-31 21:52:00,31.5,24.8,30.38,ESE,102,0.0,1.0,76,0.00,,,0.00,Wunderground v.1.15,2013-02-01 05:52:00,
2013-01-31 21:58:00,31.0,24.3,30.38,ESE,102,0.0,1.0,76,0.00,,,0.00,Wunderground v.1.15,2013-02-01 05:58:00,
2013-01-31 22:03:00,30.7,24.3,30.38,ESE,102,0.0,0.0,77,0.00,,,0.00,Wunderground v.1.15,2013-02-01 06:03:00,
2013-01-31 22:10:00,30.4,24.1,30.38,ESE,102,0.0,0.0,77,0.00,,,0.00,Wunderground v.1.15,2013-02-01 06:10:00,
2013-01-31 22:16:00,30.1,23.8,30.35,ESE,102,0.0,0.0,77,0.00,,,0.00,Wunderground v.1.15,2013-02-01 06:16:00,
2013-01-31 22:22:00,29.8,23.5,30.35,ESE,102,0.0,0.0,77,0.00,,,0.00,Wunderground v.1.15,2013-02-01 06:22:00,
2013-01-31 22:28:00,29.7,23.4,30.35,ESE,102,0.0,0.0,77,0.00,,,0.00,Wunderground v.1.15,2013-02-01 06:28:00,